sensor_id;sensor_type;location;lat;lon;timestamp;P1;durP1;ratioP1;P2;durP2;ratioP2
69754;SDS011;57023;52.218;5.158;2024-02-21T00:00:49;15.18;;;3.83;;
69754;SDS011;57023;52.218;5.158;2024-02-21T00:03:16;17.77;;;4.60;;
69754;SDS011;57023;52.218;5.158;2024-02-21T00:05:42;9.05;;;3.15;;
69754;SDS011;57023;52.218;5.158;2024-02-21T00:08:07;14.30;;;4.40;;
69754;SDS011;57023;52.218;5.158;2024-02-21T00:10:32;18.15;;;4.43;;
69754;SDS011;57023;52.218;5.158;2024-02-21T00:12:58;19.45;;;5.95;;
69754;SDS011;57023;52.218;5.158;2024-02-21T00:15:24;15.52;;;3.70;;
69754;SDS011;57023;52.218;5.158;2024-02-21T00:17:50;11.75;;;4.13;;
69754;SDS011;57023;52.218;5.158;2024-02-21T00:20:15;13.55;;;3.20;;
69754;SDS011;57023;52.218;5.158;2024-02-21T00:22:40;13.52;;;4.55;;
69754;SDS011;57023;52.218;5.158;2024-02-21T00:25:06;10.43;;;3.55;;
69754;SDS011;57023;52.218;5.158;2024-02-21T00:27:32;18.55;;;4.78;;
69754;SDS011;57023;52.218;5.158;2024-02-21T00:29:57;10.52;;;3.55;;
69754;SDS011;57023;52.218;5.158;2024-02-21T00:32:22;17.88;;;4.40;;
69754;SDS011;57023;52.218;5.158;2024-02-21T00:34:47;11.48;;;3.92;;
69754;SDS011;57023;52.218;5.158;2024-02-21T00:37:13;19.90;;;4.53;;
69754;SDS011;57023;52.218;5.158;2024-02-21T00:39:38;16.38;;;4.88;;
69754;SDS011;57023;52.218;5.158;2024-02-21T00:42:07;14.20;;;4.53;;
69754;SDS011;57023;52.218;5.158;2024-02-21T00:44:35;14.63;;;4.00;;
69754;SDS011;57023;52.218;5.158;2024-02-21T00:47:03;10.25;;;3.72;;
69754;SDS011;57023;52.218;5.158;2024-02-21T00:49:29;12.02;;;4.22;;
69754;SDS011;57023;52.218;5.158;2024-02-21T00:51:54;13.68;;;4.40;;
69754;SDS011;57023;52.218;5.158;2024-02-21T00:54:22;16.33;;;4.75;;
69754;SDS011;57023;52.218;5.158;2024-02-21T00:56:48;18.17;;;4.40;;
69754;SDS011;57023;52.218;5.158;2024-02-21T00:59:13;15.10;;;4.28;;
69754;SDS011;57023;52.218;5.158;2024-02-21T01:01:38;14.85;;;4.22;;
69754;SDS011;57023;52.218;5.158;2024-02-21T01:04:06;11.23;;;3.90;;
69754;SDS011;57023;52.218;5.158;2024-02-21T01:06:32;15.90;;;5.15;;
69754;SDS011;57023;52.218;5.158;2024-02-21T01:08:57;11.95;;;4.07;;
69754;SDS011;57023;52.218;5.158;2024-02-21T01:11:25;10.55;;;4.20;;
69754;SDS011;57023;52.218;5.158;2024-02-21T01:13:50;15.93;;;4.28;;
69754;SDS011;57023;52.218;5.158;2024-02-21T01:16:18;15.10;;;3.92;;
69754;SDS011;57023;52.218;5.158;2024-02-21T01:18:43;19.38;;;4.63;;
69754;SDS011;57023;52.218;5.158;2024-02-21T01:21:09;17.35;;;4.80;;
69754;SDS011;57023;52.218;5.158;2024-02-21T01:23:35;11.93;;;3.80;;
69754;SDS011;57023;52.218;5.158;2024-02-21T01:26:01;12.27;;;3.55;;
69754;SDS011;57023;52.218;5.158;2024-02-21T01:28:26;15.77;;;4.75;;
69754;SDS011;57023;52.218;5.158;2024-02-21T01:30:52;15.30;;;4.38;;
69754;SDS011;57023;52.218;5.158;2024-02-21T01:33:17;18.60;;;4.80;;
69754;SDS011;57023;52.218;5.158;2024-02-21T01:35:42;16.77;;;4.63;;
69754;SDS011;57023;52.218;5.158;2024-02-21T01:38:07;13.60;;;3.55;;
69754;SDS011;57023;52.218;5.158;2024-02-21T01:40:33;11.40;;;3.75;;
69754;SDS011;57023;52.218;5.158;2024-02-21T01:42:58;13.32;;;4.25;;
69754;SDS011;57023;52.218;5.158;2024-02-21T01:45:23;11.90;;;3.40;;
69754;SDS011;57023;52.218;5.158;2024-02-21T01:47:49;13.05;;;3.97;;
69754;SDS011;57023;52.218;5.158;2024-02-21T01:50:15;10.88;;;3.33;;
69754;SDS011;57023;52.218;5.158;2024-02-21T01:52:41;11.80;;;3.30;;
69754;SDS011;57023;52.218;5.158;2024-02-21T01:57:33;17.97;;;3.83;;
69754;SDS011;57023;52.218;5.158;2024-02-21T01:59:59;13.10;;;4.70;;
69754;SDS011;57023;52.218;5.158;2024-02-21T02:02:24;14.68;;;4.15;;
69754;SDS011;57023;52.218;5.158;2024-02-21T02:04:49;13.30;;;4.25;;
69754;SDS011;57023;52.218;5.158;2024-02-21T02:07:15;16.27;;;5.50;;
69754;SDS011;57023;52.218;5.158;2024-02-21T02:09:41;16.63;;;4.05;;
69754;SDS011;57023;52.218;5.158;2024-02-21T02:12:06;16.15;;;3.80;;
69754;SDS011;57023;52.218;5.158;2024-02-21T02:14:35;17.13;;;4.68;;
69754;SDS011;57023;52.218;5.158;2024-02-21T02:17:00;16.15;;;4.47;;
69754;SDS011;57023;52.218;5.158;2024-02-21T02:19:25;17.80;;;4.03;;
69754;SDS011;57023;52.218;5.158;2024-02-21T02:21:51;16.25;;;4.45;;
69754;SDS011;57023;52.218;5.158;2024-02-21T02:24:21;9.70;;;3.10;;
69754;SDS011;57023;52.218;5.158;2024-02-21T02:26:47;6.70;;;2.88;;
69754;SDS011;57023;52.218;5.158;2024-02-21T02:29:13;17.25;;;4.50;;
69754;SDS011;57023;52.218;5.158;2024-02-21T02:31:38;12.05;;;4.22;;
69754;SDS011;57023;52.218;5.158;2024-02-21T02:34:03;13.68;;;4.13;;
69754;SDS011;57023;52.218;5.158;2024-02-21T02:36:29;15.43;;;4.13;;
69754;SDS011;57023;52.218;5.158;2024-02-21T02:38:57;13.52;;;3.60;;
69754;SDS011;57023;52.218;5.158;2024-02-21T02:41:22;14.27;;;3.58;;
69754;SDS011;57023;52.218;5.158;2024-02-21T02:43:48;15.93;;;4.05;;
69754;SDS011;57023;52.218;5.158;2024-02-21T02:46:13;18.20;;;4.75;;
69754;SDS011;57023;52.218;5.158;2024-02-21T02:48:38;16.45;;;4.47;;
69754;SDS011;57023;52.218;5.158;2024-02-21T02:51:04;14.15;;;4.03;;
69754;SDS011;57023;52.218;5.158;2024-02-21T02:53:29;15.95;;;4.47;;
69754;SDS011;57023;52.218;5.158;2024-02-21T02:55:54;14.15;;;4.30;;
69754;SDS011;57023;52.218;5.158;2024-02-21T02:58:20;12.98;;;3.75;;
69754;SDS011;57023;52.218;5.158;2024-02-21T03:00:45;11.73;;;3.33;;
69754;SDS011;57023;52.218;5.158;2024-02-21T03:03:10;10.38;;;3.78;;
69754;SDS011;57023;52.218;5.158;2024-02-21T03:05:36;10.57;;;3.17;;
69754;SDS011;57023;52.218;5.158;2024-02-21T03:08:01;16.80;;;4.10;;
69754;SDS011;57023;52.218;5.158;2024-02-21T03:10:26;12.95;;;3.80;;
69754;SDS011;57023;52.218;5.158;2024-02-21T03:12:52;19.55;;;4.97;;
69754;SDS011;57023;52.218;5.158;2024-02-21T03:15:18;16.83;;;4.55;;
69754;SDS011;57023;52.218;5.158;2024-02-21T03:17:43;12.75;;;4.00;;
69754;SDS011;57023;52.218;5.158;2024-02-21T03:20:09;9.68;;;4.13;;
69754;SDS011;57023;52.218;5.158;2024-02-21T03:22:35;14.40;;;4.43;;
69754;SDS011;57023;52.218;5.158;2024-02-21T03:25:01;15.88;;;3.67;;
69754;SDS011;57023;52.218;5.158;2024-02-21T03:27:26;10.90;;;3.63;;
69754;SDS011;57023;52.218;5.158;2024-02-21T03:29:52;12.13;;;4.82;;
69754;SDS011;57023;52.218;5.158;2024-02-21T03:32:17;15.77;;;4.45;;
69754;SDS011;57023;52.218;5.158;2024-02-21T03:34:42;12.43;;;4.07;;
69754;SDS011;57023;52.218;5.158;2024-02-21T03:37:08;13.60;;;4.57;;
69754;SDS011;57023;52.218;5.158;2024-02-21T03:39:33;11.07;;;2.95;;
69754;SDS011;57023;52.218;5.158;2024-02-21T03:41:58;13.02;;;4.40;;
69754;SDS011;57023;52.218;5.158;2024-02-21T03:44:32;18.60;;;5.03;;
69754;SDS011;57023;52.218;5.158;2024-02-21T03:47:01;14.60;;;4.55;;
69754;SDS011;57023;52.218;5.158;2024-02-21T03:49:26;18.05;;;5.25;;
69754;SDS011;57023;52.218;5.158;2024-02-21T03:51:52;15.13;;;4.82;;
69754;SDS011;57023;52.218;5.158;2024-02-21T03:54:17;16.15;;;4.97;;
69754;SDS011;57023;52.218;5.158;2024-02-21T03:56:42;19.38;;;5.05;;
69754;SDS011;57023;52.218;5.158;2024-02-21T03:59:08;14.32;;;5.45;;
69754;SDS011;57023;52.218;5.158;2024-02-21T04:01:34;12.35;;;3.72;;
69754;SDS011;57023;52.218;5.158;2024-02-21T04:03:59;12.88;;;4.60;;
69754;SDS011;57023;52.218;5.158;2024-02-21T04:06:25;13.48;;;4.65;;
69754;SDS011;57023;52.218;5.158;2024-02-21T04:08:50;12.05;;;4.03;;
69754;SDS011;57023;52.218;5.158;2024-02-21T04:11:15;17.58;;;5.57;;
69754;SDS011;57023;52.218;5.158;2024-02-21T04:13:42;13.05;;;5.93;;
69754;SDS011;57023;52.218;5.158;2024-02-21T04:16:07;16.67;;;6.20;;
69754;SDS011;57023;52.218;5.158;2024-02-21T04:18:32;22.42;;;5.80;;
69754;SDS011;57023;52.218;5.158;2024-02-21T04:20:58;13.55;;;4.95;;
69754;SDS011;57023;52.218;5.158;2024-02-21T04:23:23;11.65;;;6.10;;
69754;SDS011;57023;52.218;5.158;2024-02-21T04:25:48;14.65;;;6.72;;
69754;SDS011;57023;52.218;5.158;2024-02-21T04:28:14;12.27;;;4.72;;
69754;SDS011;57023;52.218;5.158;2024-02-21T04:30:39;8.77;;;3.80;;
69754;SDS011;57023;52.218;5.158;2024-02-21T04:33:04;11.38;;;5.95;;
69754;SDS011;57023;52.218;5.158;2024-02-21T04:35:29;15.27;;;7.15;;
69754;SDS011;57023;52.218;5.158;2024-02-21T04:37:55;13.93;;;6.32;;
69754;SDS011;57023;52.218;5.158;2024-02-21T04:40:20;17.55;;;7.45;;
69754;SDS011;57023;52.218;5.158;2024-02-21T04:42:45;8.90;;;4.45;;
69754;SDS011;57023;52.218;5.158;2024-02-21T04:45:11;7.00;;;3.90;;
69754;SDS011;57023;52.218;5.158;2024-02-21T04:47:36;11.82;;;5.63;;
69754;SDS011;57023;52.218;5.158;2024-02-21T04:50:01;15.43;;;5.60;;
69754;SDS011;57023;52.218;5.158;2024-02-21T04:52:27;14.02;;;5.70;;
69754;SDS011;57023;52.218;5.158;2024-02-21T04:54:52;13.43;;;6.85;;
69754;SDS011;57023;52.218;5.158;2024-02-21T04:57:17;12.88;;;5.80;;
69754;SDS011;57023;52.218;5.158;2024-02-21T04:59:46;8.65;;;3.97;;
69754;SDS011;57023;52.218;5.158;2024-02-21T05:02:12;16.15;;;6.05;;
69754;SDS011;57023;52.218;5.158;2024-02-21T05:04:38;15.60;;;7.40;;
69754;SDS011;57023;52.218;5.158;2024-02-21T05:07:04;13.05;;;4.68;;
69754;SDS011;57023;52.218;5.158;2024-02-21T05:09:30;14.02;;;5.78;;
69754;SDS011;57023;52.218;5.158;2024-02-21T05:11:55;14.40;;;6.25;;
69754;SDS011;57023;52.218;5.158;2024-02-21T05:14:21;15.02;;;7.60;;
69754;SDS011;57023;52.218;5.158;2024-02-21T05:16:46;15.85;;;6.18;;
69754;SDS011;57023;52.218;5.158;2024-02-21T05:19:11;11.75;;;7.55;;
69754;SDS011;57023;52.218;5.158;2024-02-21T05:21:37;12.63;;;5.82;;
69754;SDS011;57023;52.218;5.158;2024-02-21T05:24:02;9.93;;;5.18;;
69754;SDS011;57023;52.218;5.158;2024-02-21T05:26:27;13.10;;;6.38;;
69754;SDS011;57023;52.218;5.158;2024-02-21T05:28:53;14.80;;;6.40;;
69754;SDS011;57023;52.218;5.158;2024-02-21T05:31:18;13.15;;;5.80;;
69754;SDS011;57023;52.218;5.158;2024-02-21T05:33:44;15.65;;;7.15;;
69754;SDS011;57023;52.218;5.158;2024-02-21T05:36:10;10.68;;;5.70;;
69754;SDS011;57023;52.218;5.158;2024-02-21T05:38:36;16.70;;;9.05;;
69754;SDS011;57023;52.218;5.158;2024-02-21T05:41:01;13.07;;;6.65;;
69754;SDS011;57023;52.218;5.158;2024-02-21T05:43:27;13.35;;;7.88;;
69754;SDS011;57023;52.218;5.158;2024-02-21T05:45:52;8.50;;;4.97;;
69754;SDS011;57023;52.218;5.158;2024-02-21T05:48:18;15.07;;;5.88;;
69754;SDS011;57023;52.218;5.158;2024-02-21T05:50:43;15.27;;;8.50;;
69754;SDS011;57023;52.218;5.158;2024-02-21T05:53:08;14.20;;;6.45;;
69754;SDS011;57023;52.218;5.158;2024-02-21T05:55:35;10.98;;;6.32;;
69754;SDS011;57023;52.218;5.158;2024-02-21T05:58:00;13.60;;;7.35;;
69754;SDS011;57023;52.218;5.158;2024-02-21T06:00:25;15.55;;;9.20;;
69754;SDS011;57023;52.218;5.158;2024-02-21T06:02:51;14.60;;;7.38;;
69754;SDS011;57023;52.218;5.158;2024-02-21T06:05:16;18.08;;;8.73;;
69754;SDS011;57023;52.218;5.158;2024-02-21T06:07:41;18.25;;;9.27;;
69754;SDS011;57023;52.218;5.158;2024-02-21T06:10:07;13.55;;;8.68;;
69754;SDS011;57023;52.218;5.158;2024-02-21T06:12:33;15.05;;;6.45;;
69754;SDS011;57023;52.218;5.158;2024-02-21T06:14:58;14.85;;;7.00;;
69754;SDS011;57023;52.218;5.158;2024-02-21T06:17:23;17.73;;;10.50;;
69754;SDS011;57023;52.218;5.158;2024-02-21T06:19:49;16.48;;;8.38;;
69754;SDS011;57023;52.218;5.158;2024-02-21T06:22:14;19.88;;;8.77;;
69754;SDS011;57023;52.218;5.158;2024-02-21T06:24:39;16.15;;;7.13;;
69754;SDS011;57023;52.218;5.158;2024-02-21T06:27:05;16.75;;;9.30;;
69754;SDS011;57023;52.218;5.158;2024-02-21T06:29:31;14.10;;;7.22;;
69754;SDS011;57023;52.218;5.158;2024-02-21T06:31:59;18.73;;;7.95;;
69754;SDS011;57023;52.218;5.158;2024-02-21T06:34:25;18.27;;;8.60;;
69754;SDS011;57023;52.218;5.158;2024-02-21T06:36:50;15.23;;;7.60;;
69754;SDS011;57023;52.218;5.158;2024-02-21T06:39:16;14.50;;;7.60;;
69754;SDS011;57023;52.218;5.158;2024-02-21T06:41:44;15.68;;;8.10;;
69754;SDS011;57023;52.218;5.158;2024-02-21T06:44:09;15.32;;;9.52;;
69754;SDS011;57023;52.218;5.158;2024-02-21T06:46:35;18.88;;;9.45;;
69754;SDS011;57023;52.218;5.158;2024-02-21T06:49:00;14.95;;;6.82;;
69754;SDS011;57023;52.218;5.158;2024-02-21T06:51:26;13.10;;;8.27;;
69754;SDS011;57023;52.218;5.158;2024-02-21T06:53:52;16.15;;;7.35;;
69754;SDS011;57023;52.218;5.158;2024-02-21T06:56:18;20.20;;;9.38;;
69754;SDS011;57023;52.218;5.158;2024-02-21T06:58:44;16.15;;;8.52;;
69754;SDS011;57023;52.218;5.158;2024-02-21T07:01:10;16.52;;;8.20;;
69754;SDS011;57023;52.218;5.158;2024-02-21T07:03:35;14.77;;;7.32;;
69754;SDS011;57023;52.218;5.158;2024-02-21T07:06:00;20.65;;;9.88;;
69754;SDS011;57023;52.218;5.158;2024-02-21T07:08:26;17.85;;;9.45;;
69754;SDS011;57023;52.218;5.158;2024-02-21T07:10:51;21.70;;;11.93;;
69754;SDS011;57023;52.218;5.158;2024-02-21T07:13:16;15.10;;;8.30;;
69754;SDS011;57023;52.218;5.158;2024-02-21T07:15:42;22.20;;;11.80;;
69754;SDS011;57023;52.218;5.158;2024-02-21T07:18:08;26.60;;;11.98;;
69754;SDS011;57023;52.218;5.158;2024-02-21T07:20:33;20.08;;;9.27;;
69754;SDS011;57023;52.218;5.158;2024-02-21T07:22:59;20.45;;;9.13;;
69754;SDS011;57023;52.218;5.158;2024-02-21T07:25:24;17.52;;;8.02;;
69754;SDS011;57023;52.218;5.158;2024-02-21T07:27:50;20.15;;;9.25;;
69754;SDS011;57023;52.218;5.158;2024-02-21T07:30:15;21.10;;;8.15;;
69754;SDS011;57023;52.218;5.158;2024-02-21T07:32:40;20.48;;;9.63;;
69754;SDS011;57023;52.218;5.158;2024-02-21T07:35:06;13.52;;;6.25;;
69754;SDS011;57023;52.218;5.158;2024-02-21T07:37:35;17.50;;;8.93;;
69754;SDS011;57023;52.218;5.158;2024-02-21T07:40:01;16.80;;;7.30;;
69754;SDS011;57023;52.218;5.158;2024-02-21T07:42:26;22.52;;;10.15;;
69754;SDS011;57023;52.218;5.158;2024-02-21T07:44:51;19.90;;;9.27;;
69754;SDS011;57023;52.218;5.158;2024-02-21T07:47:17;18.63;;;7.72;;
69754;SDS011;57023;52.218;5.158;2024-02-21T07:49:44;23.70;;;9.75;;
69754;SDS011;57023;52.218;5.158;2024-02-21T07:52:10;22.00;;;10.55;;
69754;SDS011;57023;52.218;5.158;2024-02-21T07:54:36;20.08;;;8.85;;
69754;SDS011;57023;52.218;5.158;2024-02-21T07:57:01;19.65;;;10.02;;
69754;SDS011;57023;52.218;5.158;2024-02-21T07:59:27;13.48;;;7.32;;
69754;SDS011;57023;52.218;5.158;2024-02-21T08:01:55;22.92;;;10.65;;
69754;SDS011;57023;52.218;5.158;2024-02-21T08:04:21;17.27;;;8.45;;
69754;SDS011;57023;52.218;5.158;2024-02-21T08:06:50;14.95;;;7.25;;
69754;SDS011;57023;52.218;5.158;2024-02-21T08:09:18;20.60;;;9.05;;
69754;SDS011;57023;52.218;5.158;2024-02-21T08:11:43;21.63;;;10.85;;
69754;SDS011;57023;52.218;5.158;2024-02-21T08:14:09;18.00;;;8.93;;
69754;SDS011;57023;52.218;5.158;2024-02-21T08:16:34;20.92;;;9.98;;
69754;SDS011;57023;52.218;5.158;2024-02-21T08:18:59;18.20;;;8.52;;
69754;SDS011;57023;52.218;5.158;2024-02-21T08:21:26;17.38;;;9.80;;
69754;SDS011;57023;52.218;5.158;2024-02-21T08:23:52;18.63;;;9.13;;
69754;SDS011;57023;52.218;5.158;2024-02-21T08:26:19;16.13;;;8.45;;
69754;SDS011;57023;52.218;5.158;2024-02-21T08:28:44;18.48;;;10.18;;
69754;SDS011;57023;52.218;5.158;2024-02-21T08:31:10;17.27;;;8.50;;
69754;SDS011;57023;52.218;5.158;2024-02-21T08:33:35;15.50;;;7.47;;
69754;SDS011;57023;52.218;5.158;2024-02-21T08:36:00;16.75;;;7.63;;
69754;SDS011;57023;52.218;5.158;2024-02-21T08:38:28;24.90;;;10.00;;
69754;SDS011;57023;52.218;5.158;2024-02-21T08:40:53;25.27;;;9.82;;
69754;SDS011;57023;52.218;5.158;2024-02-21T08:43:19;24.38;;;10.00;;
69754;SDS011;57023;52.218;5.158;2024-02-21T08:45:48;21.30;;;10.57;;
69754;SDS011;57023;52.218;5.158;2024-02-21T08:48:13;18.50;;;8.82;;
69754;SDS011;57023;52.218;5.158;2024-02-21T08:50:39;24.63;;;11.07;;
69754;SDS011;57023;52.218;5.158;2024-02-21T08:53:07;20.27;;;9.45;;
69754;SDS011;57023;52.218;5.158;2024-02-21T08:55:32;23.48;;;10.98;;
69754;SDS011;57023;52.218;5.158;2024-02-21T08:57:57;15.80;;;8.20;;
69754;SDS011;57023;52.218;5.158;2024-02-21T09:00:22;24.25;;;14.55;;
69754;SDS011;57023;52.218;5.158;2024-02-21T09:02:52;16.48;;;8.45;;
69754;SDS011;57023;52.218;5.158;2024-02-21T09:05:20;22.58;;;10.88;;
69754;SDS011;57023;52.218;5.158;2024-02-21T09:07:46;19.15;;;9.82;;
69754;SDS011;57023;52.218;5.158;2024-02-21T09:10:11;21.67;;;10.43;;
69754;SDS011;57023;52.218;5.158;2024-02-21T09:12:36;17.20;;;7.57;;
69754;SDS011;57023;52.218;5.158;2024-02-21T09:15:02;17.17;;;8.95;;
69754;SDS011;57023;52.218;5.158;2024-02-21T09:17:28;20.15;;;10.40;;
69754;SDS011;57023;52.218;5.158;2024-02-21T09:19:54;19.80;;;11.73;;
69754;SDS011;57023;52.218;5.158;2024-02-21T09:22:21;22.08;;;11.07;;
69754;SDS011;57023;52.218;5.158;2024-02-21T09:24:46;27.05;;;17.27;;
69754;SDS011;57023;52.218;5.158;2024-02-21T09:27:12;22.20;;;9.90;;
69754;SDS011;57023;52.218;5.158;2024-02-21T09:29:37;18.10;;;9.77;;
69754;SDS011;57023;52.218;5.158;2024-02-21T09:32:04;20.83;;;10.80;;
69754;SDS011;57023;52.218;5.158;2024-02-21T09:34:29;15.40;;;9.23;;
69754;SDS011;57023;52.218;5.158;2024-02-21T09:36:55;22.08;;;9.20;;
69754;SDS011;57023;52.218;5.158;2024-02-21T09:39:20;20.55;;;10.77;;
69754;SDS011;57023;52.218;5.158;2024-02-21T09:41:50;21.65;;;10.90;;
69754;SDS011;57023;52.218;5.158;2024-02-21T09:44:20;20.25;;;10.00;;
69754;SDS011;57023;52.218;5.158;2024-02-21T09:46:52;20.63;;;10.13;;
69754;SDS011;57023;52.218;5.158;2024-02-21T09:49:31;25.15;;;11.07;;
69754;SDS011;57023;52.218;5.158;2024-02-21T09:52:03;13.73;;;8.18;;
69754;SDS011;57023;52.218;5.158;2024-02-21T09:54:29;17.75;;;8.80;;
69754;SDS011;57023;52.218;5.158;2024-02-21T09:57:02;17.92;;;9.07;;
69754;SDS011;57023;52.218;5.158;2024-02-21T09:59:28;18.17;;;9.07;;
69754;SDS011;57023;52.218;5.158;2024-02-21T10:01:55;16.42;;;8.88;;
69754;SDS011;57023;52.218;5.158;2024-02-21T10:04:21;13.93;;;7.18;;
69754;SDS011;57023;52.218;5.158;2024-02-21T10:06:46;17.98;;;7.80;;
69754;SDS011;57023;52.218;5.158;2024-02-21T10:09:22;17.63;;;8.88;;
69754;SDS011;57023;52.218;5.158;2024-02-21T10:11:48;16.17;;;8.05;;
69754;SDS011;57023;52.218;5.158;2024-02-21T10:14:15;16.25;;;7.78;;
69754;SDS011;57023;52.218;5.158;2024-02-21T10:16:40;11.35;;;6.38;;
69754;SDS011;57023;52.218;5.158;2024-02-21T10:19:06;14.63;;;7.97;;
69754;SDS011;57023;52.218;5.158;2024-02-21T10:21:31;13.00;;;7.05;;
69754;SDS011;57023;52.218;5.158;2024-02-21T10:23:56;14.85;;;7.32;;
69754;SDS011;57023;52.218;5.158;2024-02-21T10:26:22;14.18;;;7.38;;
69754;SDS011;57023;52.218;5.158;2024-02-21T10:28:47;12.77;;;6.75;;
69754;SDS011;57023;52.218;5.158;2024-02-21T10:31:25;14.65;;;7.07;;
69754;SDS011;57023;52.218;5.158;2024-02-21T10:33:55;12.88;;;7.25;;
69754;SDS011;57023;52.218;5.158;2024-02-21T10:36:25;14.20;;;7.65;;
69754;SDS011;57023;52.218;5.158;2024-02-21T10:38:54;13.88;;;6.45;;
69754;SDS011;57023;52.218;5.158;2024-02-21T10:41:20;13.68;;;7.55;;
69754;SDS011;57023;52.218;5.158;2024-02-21T10:43:52;13.00;;;7.25;;
69754;SDS011;57023;52.218;5.158;2024-02-21T10:46:21;13.25;;;7.70;;
69754;SDS011;57023;52.218;5.158;2024-02-21T10:48:47;12.47;;;6.30;;
69754;SDS011;57023;52.218;5.158;2024-02-21T10:51:14;13.50;;;6.90;;
69754;SDS011;57023;52.218;5.158;2024-02-21T10:53:54;13.23;;;8.07;;
69754;SDS011;57023;52.218;5.158;2024-02-21T10:59:00;10.93;;;6.47;;
69754;SDS011;57023;52.218;5.158;2024-02-21T11:01:26;11.95;;;6.00;;
69754;SDS011;57023;52.218;5.158;2024-02-21T11:03:53;10.75;;;6.70;;
69754;SDS011;57023;52.218;5.158;2024-02-21T11:06:19;11.23;;;5.70;;
69754;SDS011;57023;52.218;5.158;2024-02-21T11:08:47;11.57;;;7.00;;
69754;SDS011;57023;52.218;5.158;2024-02-21T11:11:14;11.43;;;6.38;;
69754;SDS011;57023;52.218;5.158;2024-02-21T11:13:43;12.05;;;6.68;;
69754;SDS011;57023;52.218;5.158;2024-02-21T11:16:21;8.68;;;5.78;;
69754;SDS011;57023;52.218;5.158;2024-02-21T11:18:50;11.27;;;6.07;;
69754;SDS011;57023;52.218;5.158;2024-02-21T11:21:16;11.43;;;6.30;;
69754;SDS011;57023;52.218;5.158;2024-02-21T11:23:41;11.27;;;6.00;;
69754;SDS011;57023;52.218;5.158;2024-02-21T11:26:07;11.93;;;6.28;;
69754;SDS011;57023;52.218;5.158;2024-02-21T11:28:36;10.30;;;5.95;;
69754;SDS011;57023;52.218;5.158;2024-02-21T11:31:09;10.80;;;5.82;;
69754;SDS011;57023;52.218;5.158;2024-02-21T11:33:38;10.77;;;6.65;;
69754;SDS011;57023;52.218;5.158;2024-02-21T11:36:04;10.90;;;6.20;;
69754;SDS011;57023;52.218;5.158;2024-02-21T11:38:30;12.23;;;6.05;;
69754;SDS011;57023;52.218;5.158;2024-02-21T11:40:55;9.65;;;5.75;;
69754;SDS011;57023;52.218;5.158;2024-02-21T11:43:20;11.52;;;6.43;;
69754;SDS011;57023;52.218;5.158;2024-02-21T11:45:46;13.88;;;7.38;;
69754;SDS011;57023;52.218;5.158;2024-02-21T11:48:11;12.65;;;7.40;;
69754;SDS011;57023;52.218;5.158;2024-02-21T11:50:36;14.02;;;7.93;;
69754;SDS011;57023;52.218;5.158;2024-02-21T11:53:02;13.07;;;8.05;;
69754;SDS011;57023;52.218;5.158;2024-02-21T11:55:28;8.88;;;5.35;;
69754;SDS011;57023;52.218;5.158;2024-02-21T11:57:53;14.45;;;8.07;;
69754;SDS011;57023;52.218;5.158;2024-02-21T12:00:19;11.00;;;6.50;;
69754;SDS011;57023;52.218;5.158;2024-02-21T12:02:49;12.25;;;6.15;;
69754;SDS011;57023;52.218;5.158;2024-02-21T12:05:15;12.45;;;7.22;;
69754;SDS011;57023;52.218;5.158;2024-02-21T12:07:40;12.05;;;6.38;;
69754;SDS011;57023;52.218;5.158;2024-02-21T12:10:09;11.55;;;7.25;;
69754;SDS011;57023;52.218;5.158;2024-02-21T12:12:35;11.45;;;7.25;;
69754;SDS011;57023;52.218;5.158;2024-02-21T12:15:02;12.80;;;7.38;;
69754;SDS011;57023;52.218;5.158;2024-02-21T12:17:29;11.40;;;6.97;;
69754;SDS011;57023;52.218;5.158;2024-02-21T12:19:54;11.35;;;7.68;;
69754;SDS011;57023;52.218;5.158;2024-02-21T12:22:20;13.95;;;8.88;;
69754;SDS011;57023;52.218;5.158;2024-02-21T12:24:45;14.85;;;8.52;;
69754;SDS011;57023;52.218;5.158;2024-02-21T12:29:38;14.82;;;7.32;;
69754;SDS011;57023;52.218;5.158;2024-02-21T12:32:03;15.65;;;7.35;;
69754;SDS011;57023;52.218;5.158;2024-02-21T12:34:29;13.82;;;7.75;;
69754;SDS011;57023;52.218;5.158;2024-02-21T12:36:56;14.63;;;7.10;;
69754;SDS011;57023;52.218;5.158;2024-02-21T12:39:23;10.85;;;7.72;;
69754;SDS011;57023;52.218;5.158;2024-02-21T12:41:48;13.18;;;7.65;;
69754;SDS011;57023;52.218;5.158;2024-02-21T12:44:13;10.75;;;6.65;;
69754;SDS011;57023;52.218;5.158;2024-02-21T12:46:39;11.80;;;7.03;;
69754;SDS011;57023;52.218;5.158;2024-02-21T12:49:05;11.23;;;6.93;;
69754;SDS011;57023;52.218;5.158;2024-02-21T12:51:30;12.63;;;7.07;;
69754;SDS011;57023;52.218;5.158;2024-02-21T12:53:56;11.07;;;7.20;;
69754;SDS011;57023;52.218;5.158;2024-02-21T12:56:21;12.40;;;7.43;;
69754;SDS011;57023;52.218;5.158;2024-02-21T12:58:46;12.88;;;7.57;;
69754;SDS011;57023;52.218;5.158;2024-02-21T13:01:12;11.30;;;5.85;;
69754;SDS011;57023;52.218;5.158;2024-02-21T13:03:37;11.93;;;6.57;;
69754;SDS011;57023;52.218;5.158;2024-02-21T13:06:03;10.75;;;6.90;;
69754;SDS011;57023;52.218;5.158;2024-02-21T13:08:29;12.02;;;7.18;;
69754;SDS011;57023;52.218;5.158;2024-02-21T13:10:54;15.07;;;8.00;;
69754;SDS011;57023;52.218;5.158;2024-02-21T13:13:19;12.57;;;7.13;;
69754;SDS011;57023;52.218;5.158;2024-02-21T13:15:45;11.27;;;7.00;;
69754;SDS011;57023;52.218;5.158;2024-02-21T13:18:10;8.65;;;5.32;;
69754;SDS011;57023;52.218;5.158;2024-02-21T13:20:36;12.52;;;7.68;;
69754;SDS011;57023;52.218;5.158;2024-02-21T13:23:01;12.00;;;6.95;;
69754;SDS011;57023;52.218;5.158;2024-02-21T13:25:27;12.23;;;7.60;;
69754;SDS011;57023;52.218;5.158;2024-02-21T13:27:52;11.63;;;6.38;;
69754;SDS011;57023;52.218;5.158;2024-02-21T13:30:18;12.18;;;6.55;;
69754;SDS011;57023;52.218;5.158;2024-02-21T13:32:43;9.80;;;5.88;;
69754;SDS011;57023;52.218;5.158;2024-02-21T13:35:11;10.60;;;5.53;;
69754;SDS011;57023;52.218;5.158;2024-02-21T13:37:37;10.88;;;6.28;;
69754;SDS011;57023;52.218;5.158;2024-02-21T13:40:03;14.73;;;8.07;;
69754;SDS011;57023;52.218;5.158;2024-02-21T13:42:29;13.43;;;7.72;;
69754;SDS011;57023;52.218;5.158;2024-02-21T13:44:55;12.52;;;5.78;;
69754;SDS011;57023;52.218;5.158;2024-02-21T13:47:20;10.70;;;6.35;;
69754;SDS011;57023;52.218;5.158;2024-02-21T13:49:46;9.27;;;5.25;;
69754;SDS011;57023;52.218;5.158;2024-02-21T13:52:11;9.93;;;6.78;;
69754;SDS011;57023;52.218;5.158;2024-02-21T13:54:37;9.77;;;5.03;;
69754;SDS011;57023;52.218;5.158;2024-02-21T13:57:02;10.45;;;6.78;;
69754;SDS011;57023;52.218;5.158;2024-02-21T13:59:28;11.48;;;6.13;;
69754;SDS011;57023;52.218;5.158;2024-02-21T14:01:53;13.55;;;6.35;;
69754;SDS011;57023;52.218;5.158;2024-02-21T14:04:19;12.65;;;7.10;;
69754;SDS011;57023;52.218;5.158;2024-02-21T14:06:45;15.05;;;7.60;;
69754;SDS011;57023;52.218;5.158;2024-02-21T14:09:10;9.13;;;5.75;;
69754;SDS011;57023;52.218;5.158;2024-02-21T14:11:38;10.13;;;5.35;;
69754;SDS011;57023;52.218;5.158;2024-02-21T14:14:05;15.35;;;6.80;;
69754;SDS011;57023;52.218;5.158;2024-02-21T14:16:30;15.43;;;8.93;;
69754;SDS011;57023;52.218;5.158;2024-02-21T14:18:56;12.45;;;6.65;;
69754;SDS011;57023;52.218;5.158;2024-02-21T14:21:21;11.05;;;6.63;;
69754;SDS011;57023;52.218;5.158;2024-02-21T14:23:49;10.30;;;6.43;;
69754;SDS011;57023;52.218;5.158;2024-02-21T14:26:14;12.27;;;5.95;;
69754;SDS011;57023;52.218;5.158;2024-02-21T14:28:40;13.13;;;6.32;;
69754;SDS011;57023;52.218;5.158;2024-02-21T14:31:06;9.40;;;5.20;;
69754;SDS011;57023;52.218;5.158;2024-02-21T14:35:59;13.52;;;6.68;;